Time;durP1;ratioP1;P1;durP2;ratioP2;P2;SDS_P1;SDS_P2;PMS_P1;PMS_P2;Temp;Humidity;BMP_temperature;BMP_pressure;BME280_temperature;BME280_humidity;BME280_pressure;Samples;Min_cycle;Max_cycle;Signal;HPM_P1;HPM_P2
2022/09/02 00:01:57;;;;;;;5.07;2.72;;;17.50;99.90;;;;;;4971338;28;20051;-83
2022/09/02 00:04:35;;;;;;;3.55;2.80;;;17.50;99.90;;;;;;4981954;28;20054;-83
2022/09/02 00:07:02;;;;;;;3.95;3.00;;;18.40;99.90;;;;;;4999091;28;20117;-84
2022/09/02 00:09:32;;;;;;;3.90;2.80;;;17.40;99.90;;;;;;4998611;28;20555;-83
2022/09/02 00:12:05;;;;;;;5.07;3.30;;;17.40;99.90;;;;;;4977756;28;20053;-84
2022/09/02 00:14:35;;;;;;;3.00;2.63;;;17.40;99.90;;;;;;4984696;28;20054;-84
2022/09/02 00:17:06;;;;;;;3.28;2.90;;;17.40;99.90;;;;;;5000238;28;20046;-84
2022/09/02 00:19:44;;;;;;;4.07;2.60;;;17.20;99.90;;;;;;4998844;28;20057;-84
2022/09/02 00:22:27;;;;;;;3.53;2.90;;;17.20;99.90;;;;;;4969051;28;20061;-85
2022/09/02 00:25:01;;;;;;;3.13;2.83;;;17.80;99.90;;;;;;4985509;28;20090;-84
2022/09/02 00:27:28;;;;;;;5.95;3.35;;;16.40;99.90;;;;;;4977885;28;20054;-84
2022/09/02 00:29:59;;;;;;;3.97;2.58;;;17.20;99.90;;;;;;4981323;28;20480;-83
2022/09/02 00:32:34;;;;;;;3.63;2.83;;;17.90;99.90;;;;;;4971670;28;20077;-84
2022/09/02 00:35:07;;;;;;;4.93;3.13;;;17.20;99.90;;;;;;4974303;28;20123;-84
2022/09/02 00:37:54;;;;;;;4.82;2.80;;;17.70;99.90;;;;;;4976838;28;20046;-83
2022/09/02 00:40:22;;;;;;;4.25;3.22;;;17.80;99.90;;;;;;4974587;28;20042;-83
2022/09/02 00:42:56;;;;;;;5.22;2.90;;;17.30;99.90;;;;;;4976288;28;20050;-84
2022/09/02 00:45:25;;;;;;;3.78;2.75;;;18.70;99.90;;;;;;4973923;28;20115;-83
2022/09/02 00:47:52;;;;;;;3.65;2.75;;;18.40;99.90;;;;;;4991805;28;20408;-83
2022/09/02 00:50:25;;;;;;;5.85;3.08;;;17.20;99.90;;;;;;4967370;28;20114;-83
2022/09/02 00:52:57;;;;;;;3.53;3.15;;;17.10;99.90;;;;;;4997085;28;20086;-83
2022/09/02 00:55:35;;;;;;;4.93;2.95;;;17.40;99.90;;;;;;4981000;28;20161;-83
2022/09/02 00:58:11;;;;;;;3.75;3.00;;;17.10;99.90;;;;;;4999080;28;20049;-84
2022/09/02 01:00:41;;;;;;;4.50;2.72;;;17.10;99.90;;;;;;4981798;28;20523;-84
2022/09/02 01:03:10;;;;;;;;;;;16.90;99.90;;;;;;4999287;28;20049;-83
2022/09/02 01:05:47;;;;;;;6.53;2.75;;;17.10;99.90;;;;;;4962322;28;19949;-83
2022/09/02 01:08:23;;;;;;;3.60;3.08;;;17.10;99.90;;;;;;4980250;28;20499;-83
2022/09/02 01:10:56;;;;;;;7.63;3.15;;;17.40;99.90;;;;;;4981954;28;20112;-83
2022/09/02 01:13:26;;;;;;;4.35;3.55;;;17.00;99.90;;;;;;4977113;28;20055;-82
2022/09/02 01:15:57;;;;;;;5.70;3.13;;;17.40;99.90;;;;;;4969048;28;20054;-84
2022/09/02 01:18:35;;;;;;;3.65;3.10;;;17.20;99.90;;;;;;4969466;28;20079;-83
2022/09/02 01:21:12;;;;;;;4.10;3.22;;;16.90;99.90;;;;;;4979126;28;20053;-84
2022/09/02 01:23:48;;;;;;;3.60;3.03;;;17.80;99.90;;;;;;4980433;28;20058;-83
2022/09/02 01:26:19;;;;;;;3.60;3.20;;;17.40;99.90;;;;;;4971707;28;20050;-83
2022/09/02 01:28:53;;;;;;;3.33;2.95;;;17.10;99.90;;;;;;4968201;28;20043;-83
2022/09/02 01:31:22;;;;;;;3.70;2.70;;;17.20;99.90;;;;;;4973667;28;20055;-83
2022/09/02 01:33:50;;;;;;;4.80;2.97;;;16.80;99.90;;;;;;4985920;28;20047;-83
2022/09/02 01:36:29;;;;;;;4.38;2.70;;;16.80;99.90;;;;;;4973845;28;20055;-83
2022/09/02 01:38:59;;;;;;;3.83;3.10;;;16.90;99.90;;;;;;4984429;28;20142;-83
2022/09/02 01:41:36;;;;;;;4.50;2.97;;;17.40;99.90;;;;;;4969389;28;20056;-82
2022/09/02 01:44:07;;;;;;;4.78;2.72;;;16.80;99.90;;;;;;4963726;28;20054;-83
2022/09/02 01:46:37;;;;;;;4.93;2.85;;;16.70;99.90;;;;;;4967354;28;20112;-82
2022/09/02 01:49:19;;;;;;;4.38;2.88;;;16.60;99.90;;;;;;4975158;28;20077;-83
2022/09/02 01:51:54;;;;;;;4.50;3.08;;;16.80;99.90;;;;;;4974652;28;20083;-83
2022/09/02 01:54:26;;;;;;;3.35;3.05;;;17.10;99.90;;;;;;4963907;28;20046;-84
2022/09/02 01:56:56;;;;;;;6.43;3.20;;;16.60;99.90;;;;;;4962755;28;20054;-83
2022/09/02 01:59:33;;;;;;;4.30;3.20;;;16.80;99.90;;;;;;4973901;28;20050;-84
2022/09/02 02:02:01;;;;;;;4.20;3.00;;;16.70;99.90;;;;;;4979190;28;20074;-84
2022/09/02 02:04:33;;;;;;;3.53;3.22;;;17.80;99.90;;;;;;4983900;28;20042;-84
2022/09/02 02:07:04;;;;;;;;;;;16.50;99.90;;;;;;4977618;28;20101;-83
2022/09/02 02:09:37;;;;;;;4.75;3.20;;;16.80;99.90;;;;;;4970124;28;20008;-83
2022/09/02 02:12:08;;;;;;;4.68;2.90;;;16.40;99.90;;;;;;4977030;28;20428;-83
2022/09/02 02:14:49;;;;;;;5.05;2.90;;;16.30;99.90;;;;;;4971458;28;20063;-82
2022/09/02 02:17:16;;;;;;;6.38;3.08;;;18.00;99.90;;;;;;4989372;28;20062;-83
2022/09/02 02:19:43;;;;;;;4.85;4.22;;;18.10;99.90;;;;;;4987451;28;20065;-83
2022/09/02 02:22:15;;;;;;;5.72;3.28;;;17.10;99.90;;;;;;4991846;28;20560;-83
2022/09/02 02:24:47;;;;;;;3.97;3.00;;;16.30;99.90;;;;;;4976205;28;20051;-84
2022/09/02 02:27:16;;;;;;;4.10;3.40;;;16.30;99.90;;;;;;4976730;28;20062;-83
2022/09/02 02:29:52;;;;;;;3.97;3.20;;;16.30;99.90;;;;;;4979793;28;20644;-83
2022/09/02 02:32:33;;;;;;;3.55;2.70;;;16.30;99.90;;;;;;4978437;28;20124;-82
2022/09/02 02:35:16;;;;;;;4.60;3.30;;;16.40;99.90;;;;;;4975146;28;20145;-82
2022/09/02 02:37:48;;;;;;;3.17;2.88;;;16.70;99.90;;;;;;4977830;28;20048;-83
2022/09/02 02:40:20;;;;;;;3.70;3.35;;;16.90;99.90;;;;;;4975214;28;20057;-83
2022/09/02 02:42:54;;;;;;;5.40;3.58;;;16.20;99.90;;;;;;4991117;28;20057;-82
2022/09/02 02:45:26;;;;;;;4.00;3.15;;;16.20;99.90;;;;;;4975178;28;20330;-82
2022/09/02 02:47:58;;;;;;;9.63;4.15;;;15.90;99.90;;;;;;4969556;28;20050;-82
2022/09/02 02:50:30;;;;;;;4.60;3.20;;;17.70;99.90;;;;;;4976354;28;20050;-83
2022/09/02 02:53:03;;;;;;;4.18;3.60;;;17.20;99.90;;;;;;4966224;28;20050;-83
2022/09/02 02:55:41;;;;;;;3.72;3.33;;;16.20;99.90;;;;;;4967662;28;20061;-83
2022/09/02 02:58:25;;;;;;;5.03;3.67;;;16.90;99.90;;;;;;4967664;28;20053;-83
2022/09/02 03:01:04;;;;;;;4.13;3.53;;;16.10;99.90;;;;;;4968573;28;20054;-84
2022/09/02 03:03:34;;;;;;;5.05;3.08;;;16.00;99.90;;;;;;4969355;28;20424;-83
2022/09/02 03:06:03;;;;;;;3.97;3.38;;;16.00;99.90;;;;;;4973613;28;20050;-85
2022/09/02 03:08:30;;;;;;;3.95;3.55;;;16.00;99.90;;;;;;5004600;28;20050;-83
2022/09/02 03:11:01;;;;;;;5.75;3.50;;;16.00;99.90;;;;;;5007470;28;20046;-83
2022/09/02 03:13:31;;;;;;;4.45;3.90;;;16.00;99.90;;;;;;4993930;28;20035;-83
2022/09/02 03:15:58;;;;;;;5.97;4.13;;;16.00;99.90;;;;;;4999224;28;20038;-84
2022/09/02 03:18:26;;;;;;;4.00;3.60;;;16.10;99.90;;;;;;5010350;28;20054;-81
2022/09/02 03:20:54;;;;;;;6.45;3.88;;;16.40;99.90;;;;;;5017052;28;20030;-84
2022/09/02 03:23:20;;;;;;;4.75;3.30;;;16.40;99.90;;;;;;4995601;28;20053;-83
2022/09/02 03:25:47;;;;;;;5.18;3.33;;;16.00;99.90;;;;;;4992501;28;20046;-83
2022/09/02 03:28:14;;;;;;;3.30;2.90;;;16.00;99.90;;;;;;4996093;28;20074;-82
2022/09/02 03:30:41;;;;;;;4.75;3.38;;;16.00;99.90;;;;;;4994837;28;20082;-83
2022/09/02 03:33:11;;;;;;;5.72;3.60;;;16.00;99.90;;;;;;4980513;28;20129;-83
2022/09/02 03:35:47;;;;;;;3.90;3.50;;;15.90;99.90;;;;;;4978511;28;20055;-82
2022/09/02 03:38:21;;;;;;;3.90;3.47;;;15.90;99.90;;;;;;4986135;28;20051;-83
2022/09/02 03:40:50;;;;;;;4.38;3.17;;;16.10;99.90;;;;;;4970924;28;20058;-82
2022/09/02 03:43:23;;;;;;;7.35;3.42;;;16.00;99.90;;;;;;4970961;28;20078;-83
2022/09/02 03:45:57;;;;;;;4.50;3.22;;;16.60;99.90;;;;;;4971289;28;20050;-83
2022/09/02 03:48:24;;;;;;;5.13;3.17;;;17.50;99.90;;;;;;4970195;28;20464;-82
2022/09/02 03:50:51;;;;;;;3.72;3.40;;;15.80;99.90;;;;;;4985889;28;20086;-82
2022/09/02 03:53:17;;;;;;;8.15;3.35;;;15.70;99.90;;;;;;4984163;28;20054;-84
2022/09/02 03:55:57;;;;;;;3.58;3.28;;;16.30;99.90;;;;;;4983642;28;20058;-83
2022/09/02 03:58:37;;;;;;;6.80;3.65;;;15.40;99.90;;;;;;4964894;28;20062;-83
2022/09/02 04:01:18;;;;;;;4.28;3.78;;;15.40;99.90;;;;;;4964867;28;20420;-83
2022/09/02 04:03:51;;;;;;;5.47;3.78;;;15.50;99.90;;;;;;4966949;28;20519;-83
2022/09/02 04:06:33;;;;;;;4.20;3.55;;;15.30;99.90;;;;;;4953665;28;20043;-83
2022/09/02 04:09:06;;;;;;;6.15;3.63;;;17.40;99.90;;;;;;4978495;28;20058;-83
2022/09/02 04:11:45;;;;;;;5.10;3.97;;;17.00;99.90;;;;;;4964121;28;20062;-83
2022/09/02 04:14:25;;;;;;;5.00;3.90;;;15.00;99.90;;;;;;4965026;28;20051;-83
2022/09/02 04:17:00;;;;;;;4.32;3.75;;;15.80;99.90;;;;;;4965782;28;20398;-83
2022/09/02 04:19:32;;;;;;;4.15;3.72;;;16.60;99.90;;;;;;4965671;28;20059;-83
2022/09/02 04:22:19;;;;;;;3.70;3.40;;;17.40;99.90;;;;;;4967922;28;20138;-82
2022/09/02 04:24:54;;;;;;;6.68;4.00;;;15.50;99.90;;;;;;4989443;28;20074;-83
2022/09/02 04:27:31;;;;;;;5.20;3.75;;;15.50;99.90;;;;;;4979902;28;20487;-83
2022/09/02 04:30:19;;;;;;;6.35;3.70;;;17.20;99.90;;;;;;4978734;28;20134;-82
2022/09/02 04:32:49;;;;;;;5.70;4.07;;;15.30;99.90;;;;;;4968299;28;20055;-83
2022/09/02 04:35:19;;;;;;;4.70;3.78;;;15.30;99.90;;;;;;4970526;28;20046;-83
2022/09/02 04:37:49;;;;;;;7.35;4.20;;;16.30;99.90;;;;;;4971619;28;20054;-83
2022/09/02 04:40:19;;;;;;;7.93;3.53;;;16.40;99.90;;;;;;4966122;28;20070;-83
2022/09/02 04:42:46;;;;;;;5.10;4.05;;;16.90;99.90;;;;;;4984399;28;20051;-83
2022/09/02 04:45:13;;;;;;;6.13;3.70;;;15.30;99.90;;;;;;4981397;28;20105;-83
2022/09/02 04:47:40;;;;;;;5.60;3.33;;;15.30;99.90;;;;;;4989619;28;20513;-83
2022/09/02 04:50:07;;;;;;;5.90;3.45;;;15.10;99.90;;;;;;4978774;28;20058;-83
2022/09/02 04:52:33;;;;;;;4.57;3.75;;;15.20;99.90;;;;;;4998052;28;20520;-83
2022/09/02 04:55:00;;;;;;;4.68;3.83;;;15.20;99.90;;;;;;4981461;28;20077;-83
2022/09/02 04:57:27;;;;;;;5.50;3.75;;;15.20;99.90;;;;;;4996729;28;20054;-83
2022/09/02 04:59:54;;;;;;;4.78;4.00;;;15.20;99.90;;;;;;4997742;28;20051;-83
2022/09/02 05:02:22;;;;;;;6.25;3.58;;;15.20;99.90;;;;;;4995288;28;20092;-83
2022/09/02 05:04:49;;;;;;;5.85;3.80;;;15.40;99.90;;;;;;4981347;28;21057;-83
2022/09/02 05:07:15;;;;;;;4.20;3.80;;;15.20;99.90;;;;;;4993012;28;20081;-85
2022/09/02 05:09:43;;;;;;;5.05;3.65;;;15.50;99.90;;;;;;4992308;28;20054;-83
2022/09/02 05:12:10;;;;;;;6.20;3.90;;;15.10;99.90;;;;;;4978352;28;20082;-82
2022/09/02 05:14:37;;;;;;;3.80;3.50;;;15.20;99.90;;;;;;4989663;28;20077;-81
2022/09/02 05:17:04;;;;;;;4.55;3.78;;;15.40;99.90;;;;;;4970538;28;20054;-83
2022/09/02 05:19:33;;;;;;;4.22;3.83;;;15.60;99.90;;;;;;4987005;28;20051;-83
2022/09/02 05:22:00;;;;;;;5.68;3.65;;;15.20;99.90;;;;;;4987173;28;20046;-82
2022/09/02 05:24:28;;;;;;;4.30;3.67;;;15.20;99.90;;;;;;4984480;28;20050;-80
2022/09/02 05:26:55;;;;;;;6.28;5.20;;;15.10;99.90;;;;;;4982744;28;20050;-80
2022/09/02 05:29:22;;;;;;;5.30;3.75;;;15.20;99.90;;;;;;4967273;28;20134;-79
2022/09/02 05:31:49;;;;;;;3.97;3.58;;;15.10;99.90;;;;;;4976546;28;20062;-82
2022/09/02 05:34:16;;;;;;;5.93;4.10;;;15.20;99.90;;;;;;4977167;28;20473;-79
2022/09/02 05:36:44;;;;;;;5.03;3.78;;;15.30;99.90;;;;;;4974202;28;20137;-80
2022/09/02 05:39:10;;;;;;;5.43;3.63;;;15.30;99.90;;;;;;4993807;28;20093;-80
2022/09/02 05:41:37;;;;;;;6.18;3.78;;;15.30;99.90;;;;;;4993840;28;20046;-80
2022/09/02 05:44:05;;;;;;;4.43;4.03;;;15.50;99.90;;;;;;4976409;28;20102;-81
2022/09/02 05:46:32;;;;;;;5.82;4.53;;;15.30;99.90;;;;;;4976704;28;20146;-80
2022/09/02 05:49:06;;;;;;;5.05;3.95;;;15.30;99.90;;;;;;4978047;28;20054;-80
2022/09/02 05:51:37;;;;;;;7.07;4.30;;;15.30;99.90;;;;;;4979030;28;20053;-80
2022/09/02 05:54:03;;;;;;;4.50;3.80;;;15.40;99.90;;;;;;4975633;28;20125;-80
2022/09/02 05:56:30;;;;;;;5.10;4.60;;;15.40;99.90;;;;;;4984719;28;20443;-80
2022/09/02 05:58:58;;;;;;;5.13;4.40;;;15.40;99.90;;;;;;4984288;28;20068;-80
2022/09/02 06:01:28;;;;;;;6.05;5.30;;;15.40;99.90;;;;;;4982082;28;20090;-79
2022/09/02 06:03:56;;;;;;;6.10;5.47;;;15.50;99.90;;;;;;4986656;28;20054;-80
2022/09/02 06:06:23;;;;;;;5.60;5.05;;;15.50;99.90;;;;;;4990550;28;20121;-81
2022/09/02 06:08:50;;;;;;;5.82;4.65;;;15.50;99.90;;;;;;4996590;28;20062;-81
2022/09/02 06:11:18;;;;;;;5.18;3.97;;;15.50;99.90;;;;;;4997666;28;20050;-81
2022/09/02 06:13:45;;;;;;;4.80;3.90;;;15.60;99.90;;;;;;4982796;28;20054;-80
2022/09/02 06:16:18;;;;;;;7.53;4.25;;;15.60;99.90;;;;;;4982749;28;20074;-80
2022/09/02 06:18:48;;;;;;;6.35;4.30;;;15.60;99.90;;;;;;4982995;28;20054;-82
2022/09/02 06:21:15;;;;;;;;;;;15.60;99.90;;;;;;4981420;28;20047;-83
2022/09/02 06:23:43;;;;;;;4.78;4.28;;;15.60;99.90;;;;;;4980393;28;20009;-82
2022/09/02 06:26:11;;;;;;;5.95;3.85;;;15.70;99.90;;;;;;4980294;28;20102;-82
2022/09/02 06:28:38;;;;;;;4.70;3.92;;;15.70;99.90;;;;;;4994886;28;20096;-82
2022/09/02 06:31:10;;;;;;;5.72;4.50;;;15.70;99.90;;;;;;4995988;28;20046;-81
2022/09/02 06:33:37;;;;;;;8.15;4.75;;;15.80;99.90;;;;;;4979936;28;20061;-82
2022/09/02 06:36:10;;;;;;;7.93;6.20;;;15.80;99.90;;;;;;4979350;28;20093;-82
2022/09/02 06:38:42;;;;;;;6.20;5.57;;;15.80;99.90;;;;;;4978879;28;20114;-82
2022/09/02 06:41:26;;;;;;;7.18;6.22;;;15.90;99.90;;;;;;4989954;28;20402;-80
2022/09/02 06:43:59;;;;;;;8.52;6.50;;;15.90;99.90;;;;;;4979732;28;20089;-82
2022/09/02 06:46:35;;;;;;;9.35;7.07;;;15.90;99.90;;;;;;4990813;28;20082;-82
2022/09/02 06:49:05;;;;;;;8.77;7.32;;;16.00;99.90;;;;;;4987048;28;20054;-82
2022/09/02 06:51:38;;;;;;;7.30;6.60;;;16.00;99.90;;;;;;4988526;28;20085;-81
2022/09/02 06:54:06;;;;;;;8.32;7.53;;;16.10;99.90;;;;;;4991027;28;20534;-82
2022/09/02 06:56:34;;;;;;;8.40;7.13;;;16.10;99.90;;;;;;4991686;28;20134;-83
2022/09/02 06:59:01;;;;;;;8.60;7.80;;;16.10;99.90;;;;;;4991463;28;20114;-82
2022/09/02 07:01:30;;;;;;;9.50;7.55;;;16.20;99.90;;;;;;4979164;28;20149;-82
2022/09/02 07:06:50;;;;;;;8.93;8.02;;;16.30;99.90;;;;;;4994091;28;20078;-80
2022/09/02 07:09:22;;;;;;;9.10;8.15;;;16.40;99.90;;;;;;4980166;28;20156;-82
2022/09/02 07:11:49;;;;;;;8.68;7.43;;;16.40;99.90;;;;;;4980058;28;20054;-81
2022/09/02 07:14:19;;;;;;;8.32;7.38;;;16.50;99.90;;;;;;4982590;28;20493;-81
2022/09/02 07:16:50;;;;;;;9.18;7.68;;;16.40;99.90;;;;;;4990732;28;20133;-81
2022/09/02 07:19:19;;;;;;;10.27;7.15;;;16.50;99.90;;;;;;4989962;28;20042;-81
2022/09/02 07:21:48;;;;;;;9.95;7.50;;;16.60;99.90;;;;;;4985950;28;20054;-81
2022/09/02 07:24:16;;;;;;;10.45;7.53;;;16.70;99.90;;;;;;4988254;28;20100;-81
2022/09/02 07:26:43;;;;;;;10.77;7.82;;;16.70;99.90;;;;;;4956125;28;20138;-82
2022/09/02 07:29:10;;;;;;;8.10;7.28;;;16.70;99.90;;;;;;4978146;28;20055;-81
2022/09/02 07:31:39;;;;;;;10.40;7.30;;;16.80;99.90;;;;;;4979468;28;20058;-81
2022/09/02 07:34:08;;;;;;;7.17;6.30;;;16.80;99.90;;;;;;4982934;28;20051;-81
2022/09/02 07:36:35;;;;;;;10.02;7.13;;;16.90;99.90;;;;;;4983293;28;20047;-81
2022/09/02 07:39:05;;;;;;;7.30;6.60;;;16.90;99.90;;;;;;4970756;28;20043;-81
2022/09/02 07:41:32;;;;;;;8.82;7.28;;;17.00;99.90;;;;;;4981689;28;20051;-81
2022/09/02 07:44:00;;;;;;;9.48;6.45;;;17.00;99.90;;;;;;4972273;28;20513;-81
2022/09/02 07:46:30;;;;;;;7.28;6.50;;;17.10;99.90;;;;;;4976907;28;20512;-81
2022/09/02 07:48:58;;;;;;;6.60;6.00;;;17.10;99.90;;;;;;4987226;28;20056;-81
2022/09/02 07:51:26;;;;;;;11.60;7.03;;;17.10;99.90;;;;;;4971763;28;20097;-81
2022/09/02 07:53:56;;;;;;;10.80;6.93;;;17.10;99.90;;;;;;4985536;28;20137;-81
2022/09/02 07:56:23;;;;;;;14.13;6.82;;;17.10;99.90;;;;;;4977435;28;20149;-81
2022/09/02 07:58:50;;;;;;;8.55;6.78;;;17.20;99.90;;;;;;4979104;28;20493;-82
2022/09/02 08:01:19;;;;;;;10.35;7.78;;;17.30;99.90;;;;;;4989593;28;20110;-81
2022/09/02 08:03:49;;;;;;;11.10;7.90;;;17.30;99.90;;;;;;4982747;28;20057;-81
2022/09/02 08:06:16;;;;;;;10.85;8.13;;;17.40;99.90;;;;;;4984885;28;20483;-80
2022/09/02 08:08:54;;;;;;;10.15;7.38;;;17.40;99.90;;;;;;4983334;28;20086;-81
2022/09/02 08:11:22;;;;;;;12.15;7.90;;;17.40;99.90;;;;;;4967574;28;20058;-80
2022/09/02 08:13:50;;;;;;;10.18;7.07;;;17.50;99.90;;;;;;4985998;28;20047;-81
2022/09/02 08:16:17;;;;;;;8.60;7.03;;;17.50;99.90;;;;;;4986659;28;20134;-81
2022/09/02 08:18:44;;;;;;;13.40;7.63;;;17.50;99.90;;;;;;4986693;28;20046;-81
2022/09/02 08:21:12;;;;;;;9.73;7.90;;;17.60;99.90;;;;;;4989225;28;20057;-81
2022/09/02 08:23:39;;;;;;;9.05;7.07;;;17.70;99.90;;;;;;4988913;28;20061;-81
2022/09/02 08:26:06;;;;;;;9.25;7.53;;;17.70;99.90;;;;;;4990978;28;20421;-81
2022/09/02 08:28:34;;;;;;;9.73;7.35;;;17.70;99.90;;;;;;4991397;28;20078;-81
2022/09/02 08:31:04;;;;;;;9.80;6.00;;;17.80;99.90;;;;;;4990896;28;20052;-82
2022/09/02 08:33:31;;;;;;;8.45;5.88;;;17.80;99.90;;;;;;4977484;28;20074;-81
2022/09/02 08:36:07;;;;;;;6.43;5.82;;;17.80;99.90;;;;;;4981184;28;20061;-82
2022/09/02 08:38:35;;;;;;;6.65;5.35;;;17.90;99.90;;;;;;4983852;28;20043;-81
2022/09/02 08:41:21;;;;;;;8.00;4.95;;;17.90;99.90;;;;;;5004298;28;20074;-81
2022/09/02 08:43:54;;;;;;;6.82;5.10;;;18.00;99.90;;;;;;4974598;28;20055;-81
2022/09/02 08:46:25;;;;;;;8.90;4.63;;;18.00;99.90;;;;;;4982614;28;20053;-82
2022/09/02 08:48:58;;;;;;;8.52;5.00;;;18.00;99.90;;;;;;5002410;28;20050;-81
2022/09/02 08:51:40;;;;;;;4.95;4.43;;;18.10;99.90;;;;;;4980727;28;20571;-81
2022/09/02 08:54:17;;;;;;;5.50;4.97;;;18.20;99.90;;;;;;4995590;28;20101;-81
2022/09/02 08:56:44;;;;;;;5.05;4.60;;;18.20;99.90;;;;;;4993680;28;20086;-81
2022/09/02 08:59:14;;;;;;;6.93;5.07;;;18.30;99.90;;;;;;4989602;28;20129;-81
2022/09/02 09:02:03;;;;;;;8.82;4.35;;;18.30;99.90;;;;;;4998175;28;20074;-81
2022/09/02 09:04:48;;;;;;;8.52;4.47;;;18.40;99.90;;;;;;4996471;28;20085;-81
2022/09/02 09:07:43;;;;;;;5.95;4.00;;;18.40;99.90;;;;;;4985872;28;20791;-81
2022/09/02 09:10:15;;;;;;;7.72;4.55;;;18.50;99.90;;;;;;4989483;28;20054;-82
2022/09/02 09:13:08;;;;;;;7.65;4.53;;;18.50;99.90;;;;;;4988900;28;20081;-82
2022/09/02 09:15:56;;;;;;;5.55;4.13;;;18.60;99.90;;;;;;4986983;28;20082;-82
2022/09/02 09:18:33;;;;;;;8.07;4.57;;;18.60;99.90;;;;;;4986378;28;20055;-81
2022/09/02 09:21:00;;;;;;;6.85;4.63;;;18.70;99.90;;;;;;4984665;28;20047;-81
2022/09/02 09:23:32;;;;;;;4.57;3.70;;;18.80;99.90;;;;;;4984801;28;20074;-83
2022/09/02 09:26:08;;;;;;;5.45;3.85;;;18.80;99.90;;;;;;4966180;28;20155;-82
2022/09/02 09:28:42;;;;;;;5.05;3.97;;;18.90;99.90;;;;;;4995513;28;20746;-82
2022/09/02 09:31:18;;;;;;;8.82;4.28;;;18.90;99.90;;;;;;4996813;28;20484;-83
2022/09/02 09:34:05;;;;;;;5.88;4.60;;;18.90;99.90;;;;;;4982029;28;20109;-82
2022/09/02 09:36:43;;;;;;;6.72;4.45;;;19.00;99.90;;;;;;4997070;28;20469;-83
2022/09/02 09:39:23;;;;;;;8.52;5.22;;;19.10;99.90;;;;;;4979930;28;20089;-81
2022/09/02 09:41:56;;;;;;;9.48;5.43;;;19.10;99.90;;;;;;4981376;28;20141;-82
2022/09/02 09:44:45;;;;;;;9.93;6.10;;;19.10;99.90;;;;;;4982283;28;20134;-82
2022/09/02 09:47:24;;;;;;;7.23;5.80;;;19.20;99.90;;;;;;4984048;28;20117;-83
2022/09/02 09:49:53;;;;;;;8.60;5.70;;;19.30;99.90;;;;;;4967631;28;20346;-82
2022/09/02 09:52:22;;;;;;;6.97;5.53;;;19.50;99.90;;;;;;4977416;28;20058;-82
2022/09/02 09:55:08;;;;;;;8.00;6.03;;;19.40;99.90;;;;;;4978177;28;20317;-82
2022/09/02 09:57:39;;;;;;;7.05;5.35;;;19.50;99.90;;;;;;4986346;28;20081;-82
2022/09/02 10:00:25;;;;;;;8.50;5.80;;;19.50;99.90;;;;;;4976925;28;20125;-82
2022/09/02 10:02:57;;;;;;;8.60;5.10;;;19.50;99.90;;;;;;4988396;28;20129;-80
2022/09/02 10:05:23;;;;;;;6.65;4.95;;;19.60;99.90;;;;;;4986823;28;20449;-82
2022/09/02 10:08:02;;;;;;;9.55;5.95;;;19.70;99.90;;;;;;4982716;28;20081;-82
2022/09/02 10:10:31;;;;;;;6.32;5.28;;;19.80;99.90;;;;;;4978379;28;20058;-82
2022/09/02 10:13:15;;;;;;;7.75;4.90;;;19.80;99.90;;;;;;4979591;28;20476;-83
2022/09/02 10:16:01;;;;;;;6.78;5.15;;;19.90;99.90;;;;;;4980261;28;20120;-81
2022/09/02 10:18:43;;;;;;;7.88;4.95;;;20.00;99.90;;;;;;4989924;28;20055;-82
2022/09/02 10:21:38;;;;;;;6.05;4.97;;;20.00;99.90;;;;;;4976104;28;20463;-80
2022/09/02 10:24:32;;;;;;;7.07;5.10;;;20.00;99.90;;;;;;4992738;28;20047;-82
2022/09/02 10:27:02;;;;;;;10.30;4.90;;;20.10;99.90;;;;;;4963140;28;20493;-82
2022/09/02 10:29:39;;;;;;;6.30;5.70;;;20.30;99.90;;;;;;4979995;28;20059;-82
2022/09/02 10:32:12;;;;;;;9.55;5.10;;;20.30;99.90;;;;;;4981225;28;20078;-82
2022/09/02 10:35:00;;;;;;;6.57;4.18;;;20.30;99.90;;;;;;4982672;28;20078;-84
2022/09/02 10:37:58;;;;;;;4.72;3.63;;;20.30;99.90;;;;;;4988998;28;20061;-83
2022/09/02 10:40:33;;;;;;;7.10;4.40;;;20.40;99.90;;;;;;4974892;28;20077;-82
2022/09/02 10:43:17;;;;;;;7.07;4.07;;;20.50;99.90;;;;;;4986648;28;20054;-82
2022/09/02 10:45:45;;;;;;;5.35;3.13;;;20.60;99.90;;;;;;4984850;28;20074;-82
2022/09/02 10:48:18;;;;;;;5.28;3.08;;;20.70;99.90;;;;;;4982814;28;20046;-82
2022/09/02 10:50:52;;;;;;;5.18;3.20;;;20.80;99.90;;;;;;4982642;28;20055;-83
2022/09/02 10:53:32;;;;;;;10.82;3.20;;;20.80;99.90;;;;;;4983443;28;20066;-81
2022/09/02 10:56:04;;;;;;;5.60;3.05;;;20.80;99.90;;;;;;4971382;28;20100;-82
2022/09/02 10:58:44;;;;;;;3.40;3.10;;;20.90;99.90;;;;;;4989824;28;20092;-81
2022/09/02 11:01:19;;;;;;;4.25;3.25;;;21.00;99.90;;;;;;4978063;28;20078;-82
2022/09/02 11:04:19;;;;;;;4.20;2.78;;;21.00;99.90;;;;;;4978051;28;20137;-80
2022/09/02 11:06:51;;;;;;;5.97;3.05;;;21.10;99.90;;;;;;4978392;28;20141;-80
2022/09/02 11:09:53;;;;;;;6.68;3.30;;;21.10;99.90;;;;;;4974861;28;20058;-81
2022/09/02 11:12:38;;;;;;;4.18;3.42;;;21.10;99.90;;;;;;4980266;28;20093;-81
2022/09/02 11:15:18;;;;;;;4.75;3.33;;;21.10;99.90;;;;;;4980381;28;20058;-81
2022/09/02 11:17:58;;;;;;;3.45;2.90;;;21.10;99.90;;;;;;4977600;28;20065;-82
2022/09/02 11:20:47;;;;;;;6.05;3.35;;;21.10;99.90;;;;;;4991449;28;20078;-82
2022/09/02 11:23:40;;;;;;;3.90;3.00;;;21.10;99.90;;;;;;4988242;28;20065;-81
2022/09/02 11:26:44;;;;;;;4.10;2.83;;;21.20;99.90;;;;;;4983538;28;20069;-81
2022/09/02 11:29:27;;;;;;;5.40;2.83;;;21.20;99.90;;;;;;4986811;28;20123;-80
2022/09/02 11:32:06;;;;;;;4.70;3.67;;;21.30;99.90;;;;;;4990500;28;20086;-81
2022/09/02 11:34:42;;;;;;;7.13;2.87;;;21.30;99.90;;;;;;4997846;28;20066;-81
2022/09/02 11:37:23;;;;;;;3.72;2.60;;;21.30;99.90;;;;;;4982809;28;20063;-80
2022/09/02 11:39:57;;;;;;;7.18;3.50;;;21.40;99.90;;;;;;4999659;28;20042;-81
2022/09/02 11:42:48;;;;;;;4.13;2.60;;;21.50;99.90;;;;;;4984047;28;20054;-81
2022/09/02 11:45:46;;;;;;;7.22;3.17;;;21.60;99.90;;;;;;4980426;28;20589;-80
2022/09/02 11:48:37;;;;;;;6.38;3.10;;;21.70;99.90;;;;;;4981481;28;20051;-81
2022/09/02 11:51:08;;;;;;;9.32;3.28;;;21.90;99.90;;;;;;4985525;28;20057;-80
2022/09/02 11:53:39;;;;;;;5.30;3.10;;;22.10;99.90;;;;;;4994428;28;20262;-80
2022/09/02 11:56:18;;;;;;;5.35;3.10;;;22.20;99.90;;;;;;5007920;23;20515;-76
2022/09/02 11:58:53;;;;;;;3.67;2.67;;;22.10;99.90;;;;;;5024292;28;20080;-77
2022/09/02 12:01:31;;;;;;;5.35;2.67;;;22.10;99.90;;;;;;5002980;28;20515;-76
2022/09/02 12:04:10;;;;;;;3.70;3.40;;;22.10;99.90;;;;;;5025046;28;20062;-76
2022/09/02 12:07:06;;;;;;;4.53;3.13;;;22.10;99.90;;;;;;5022531;28;20050;-76
2022/09/02 12:09:46;;;;;;;5.60;2.72;;;22.10;99.90;;;;;;5019250;28;20090;-76
2022/09/02 12:12:35;;;;;;;4.95;2.40;;;22.10;99.90;;;;;;5018422;28;20057;-76
2022/09/02 12:15:05;;;;;;;3.38;2.70;;;22.10;99.90;;;;;;5020008;28;20774;-76
2022/09/02 12:17:43;;;;;;;;;;;22.10;99.90;;;;;;5009430;28;20072;-77
2022/09/02 12:20:36;;;;;;;4.90;2.78;;;22.20;99.90;;;;;;5018891;28;20363;-76
2022/09/02 12:23:03;;;;;;;3.92;2.70;;;22.20;99.90;;;;;;5002446;28;20683;-77
2022/09/02 12:25:32;;;;;;;7.07;3.30;;;22.30;99.90;;;;;;5001720;28;20041;-76
2022/09/02 12:28:25;;;;;;;5.20;2.77;;;22.30;99.90;;;;;;5023062;28;20460;-76
2022/09/02 12:31:06;;;;;;;3.13;2.58;;;22.30;99.90;;;;;;5025135;28;20292;-77
2022/09/02 12:33:35;;;;;;;3.83;2.50;;;22.40;99.90;;;;;;5022940;28;20050;-76
2022/09/02 12:36:03;;;;;;;3.97;3.28;;;22.40;99.90;;;;;;5019465;28;20137;-77
2022/09/02 12:38:35;;;;;;;5.30;2.88;;;22.50;99.90;;;;;;5023037;28;20137;-77
2022/09/02 12:41:04;;;;;;;3.28;2.67;;;22.50;99.90;;;;;;5018037;28;20061;-77
2022/09/02 12:43:43;;;;;;;4.15;2.83;;;22.60;99.90;;;;;;5023308;28;20050;-76
2022/09/02 12:46:23;;;;;;;3.63;2.58;;;22.70;99.90;;;;;;5002153;28;20047;-76
2022/09/02 12:49:28;;;;;;;3.08;2.80;;;22.70;99.90;;;;;;5006958;28;20041;-77
2022/09/02 12:51:55;;;;;;;3.67;2.60;;;22.70;99.90;;;;;;5016933;28;20140;-77
2022/09/02 12:54:47;;;;;;;2.83;2.50;;;22.80;99.90;;;;;;5024451;28;20133;-77
2022/09/02 12:57:16;;;;;;;5.40;2.83;;;22.80;99.90;;;;;;5003746;28;20057;-76
2022/09/02 12:59:46;;;;;;;4.80;2.53;;;22.80;99.90;;;;;;5021995;28;20483;-76
2022/09/02 13:02:55;;;;;;;3.03;2.30;;;22.80;99.90;;;;;;5006190;28;20054;-77
2022/09/02 13:06:03;;;;;;;2.60;2.38;;;22.90;99.90;;;;;;4980980;28;20050;-76
2022/09/02 13:08:55;;;;;;;3.47;1.95;;;23.30;99.90;;;;;;5021081;28;20121;-76
2022/09/02 13:11:59;;;;;;;4.20;2.05;;;23.20;99.90;;;;;;5020756;28;20046;-78
2022/09/02 13:15:00;;;;;;;5.82;2.42;;;23.20;99.90;;;;;;5018843;28;20136;-78
2022/09/02 13:18:12;;;;;;;5.05;2.08;;;23.20;99.90;;;;;;5023194;28;20233;-77
2022/09/02 13:21:11;;;;;;;3.72;2.63;;;23.30;99.90;;;;;;5022829;28;20097;-77
2022/09/02 13:23:41;;;;;;;2.65;2.25;;;23.30;99.90;;;;;;5019410;28;20100;-78
2022/09/02 13:26:42;;;;;;;4.00;2.50;;;23.40;99.90;;;;;;5021794;28;20228;-77
2022/09/02 13:29:31;;;;;;;3.45;2.38;;;23.40;99.90;;;;;;5021441;28;20049;-79